createdAt,value
2022-08-01T00:01:26.515Z,21.14
2022-08-01T00:03:55.138Z,21.15
2022-08-01T00:06:23.571Z,21.14
2022-08-01T00:08:52.013Z,21.15
2022-08-01T00:11:21.921Z,21.14
2022-08-01T00:13:50.562Z,21.14
2022-08-01T00:16:19.054Z,21.11
2022-08-01T00:18:47.460Z,21.08
2022-08-01T00:21:16.076Z,21.07
2022-08-01T00:23:44.716Z,21.04
2022-08-01T00:26:13.276Z,21.01
2022-08-01T00:28:43.395Z,20.99
2022-08-01T00:31:11.846Z,20.97
2022-08-01T00:33:40.299Z,20.94
2022-08-01T00:36:09.065Z,20.93
2022-08-01T00:38:37.548Z,20.90
2022-08-01T00:41:06.015Z,20.89
2022-08-01T00:43:34.556Z,20.87
2022-08-01T00:46:04.437Z,20.86
2022-08-01T00:48:32.856Z,20.83
2022-08-01T00:51:01.378Z,20.80
2022-08-01T00:53:38.743Z,20.78
2022-08-01T00:56:18.593Z,20.75
2022-08-01T00:58:47.102Z,20.73
2022-08-01T01:01:21.873Z,20.72
2022-08-01T01:03:59.898Z,20.68
2022-08-01T01:06:38.040Z,20.65
2022-08-01T01:09:20.710Z,20.63
2022-08-01T01:11:59.912Z,20.60
2022-08-01T01:14:35.980Z,20.56
2022-08-01T01:17:10.128Z,20.55
2022-08-01T01:19:44.372Z,20.53
2022-08-01T01:22:28.242Z,20.49
2022-08-01T01:25:11.983Z,20.47
2022-08-01T01:27:51.914Z,20.44
2022-08-01T01:30:23.897Z,20.43
2022-08-01T01:32:56.352Z,20.40
2022-08-01T01:35:28.347Z,20.40
2022-08-01T01:38:00.999Z,20.38
2022-08-01T01:40:31.416Z,20.37
2022-08-01T01:43:00.704Z,20.34
2022-08-01T01:45:31.793Z,20.32
2022-08-01T01:48:01.505Z,20.29
2022-08-01T01:50:31.014Z,20.29
2022-08-01T01:53:01.625Z,20.26
2022-08-01T01:55:31.032Z,20.25
2022-08-01T01:58:01.572Z,20.23
2022-08-01T02:00:34.109Z,20.21
2022-08-01T02:03:06.879Z,20.20
2022-08-01T02:05:37.908Z,20.16
2022-08-01T02:08:07.975Z,20.16
2022-08-01T02:10:38.522Z,20.14
2022-08-01T02:13:08.908Z,20.14
2022-08-01T02:16:00.420Z,20.13
2022-08-01T02:18:28.233Z,20.11
2022-08-01T02:20:58.416Z,20.10
2022-08-01T02:23:32.789Z,20.07
2022-08-01T02:26:09.710Z,20.05
2022-08-01T02:28:45.814Z,20.02
2022-08-01T02:31:20.246Z,19.94
2022-08-01T02:33:54.329Z,19.91
2022-08-01T02:36:30.961Z,19.86
2022-08-01T02:39:04.572Z,19.85
2022-08-01T02:41:35.786Z,19.80
2022-08-01T02:44:07.475Z,19.81
2022-08-01T02:46:41.285Z,19.88
2022-08-01T02:49:13.370Z,19.89
2022-08-01T02:51:43.345Z,19.92
2022-08-01T02:54:13.123Z,19.88
2022-08-01T02:56:43.881Z,19.85
2022-08-01T02:59:16.370Z,19.87
2022-08-01T03:01:55.075Z,19.90
2022-08-01T03:04:25.082Z,19.89
2022-08-01T03:06:55.295Z,19.94
2022-08-01T03:09:25.349Z,19.98
2022-08-01T03:11:55.139Z,20.00
2022-08-01T03:14:26.092Z,20.03
2022-08-01T03:16:57.791Z,20.09
2022-08-01T03:19:29.776Z,20.13
2022-08-01T03:22:00.637Z,20.16
2022-08-01T03:24:30.741Z,20.20
2022-08-01T03:27:00.264Z,20.24
2022-08-01T03:29:31.532Z,20.26
2022-08-01T03:32:03.720Z,20.30
2022-08-01T03:34:32.618Z,20.26
2022-08-01T03:37:07.635Z,20.30
2022-08-01T03:39:42.313Z,20.34
2022-08-01T03:42:16.679Z,20.36
2022-08-01T03:44:52.091Z,20.40
2022-08-01T03:47:26.851Z,20.42
2022-08-01T03:49:57.299Z,20.40
2022-08-01T03:52:28.047Z,20.43
2022-08-01T03:54:58.605Z,20.48
2022-08-01T03:57:36.313Z,20.52
2022-08-01T04:00:10.107Z,20.58
2022-08-01T04:02:43.964Z,20.63
2022-08-01T04:05:13.103Z,20.67
2022-08-01T04:07:44.115Z,20.71
2022-08-01T04:10:13.351Z,20.76
2022-08-01T04:12:41.972Z,20.79
2022-08-01T04:15:10.883Z,20.82
2022-08-01T04:17:39.374Z,20.85
2022-08-01T04:20:10.410Z,20.80
2022-08-01T04:22:39.960Z,20.84
2022-08-01T04:25:14.835Z,20.84
2022-08-01T04:27:50.008Z,20.77
2022-08-01T04:30:22.510Z,20.83
2022-08-01T04:32:52.059Z,20.78
2022-08-01T04:36:02.814Z,20.83
2022-08-01T04:38:15.364Z,20.87
2022-08-01T04:40:44.914Z,20.89
2022-08-01T04:43:15.142Z,20.89
2022-08-01T04:45:45.803Z,20.91
2022-08-01T04:48:15.708Z,20.94
2022-08-01T04:50:45.638Z,20.96
2022-08-01T04:53:18.940Z,20.95
2022-08-01T04:55:48.184Z,20.98
2022-08-01T04:58:18.729Z,21.00
2022-08-01T05:00:48.273Z,21.07
2022-08-01T05:03:16.826Z,21.12
2022-08-01T05:05:47.365Z,21.17
2022-08-01T05:08:15.828Z,21.24
2022-08-01T05:10:44.794Z,21.26
2022-08-01T05:13:13.229Z,21.31
2022-08-01T05:15:42.205Z,21.36
2022-08-01T05:18:10.753Z,21.43
2022-08-01T05:20:39.383Z,21.51
2022-08-01T05:23:15.829Z,21.55
2022-08-01T05:25:59.051Z,21.52
2022-08-01T05:28:27.618Z,21.54
2022-08-01T05:30:57.672Z,21.58
2022-08-01T05:33:26.069Z,21.62
2022-08-01T05:35:54.569Z,21.70
2022-08-01T05:38:24.532Z,21.72
2022-08-01T05:40:53.123Z,21.81
2022-08-01T05:43:24.415Z,21.87
2022-08-01T05:45:56.783Z,21.94
2022-08-01T05:48:25.280Z,22.03
2022-08-01T05:50:58.209Z,22.09
2022-08-01T05:53:28.899Z,22.06
2022-08-01T05:55:57.625Z,22.10
2022-08-01T05:58:26.175Z,22.17
2022-08-01T06:00:54.623Z,22.22
2022-08-01T06:03:23.035Z,22.33
2022-08-01T06:05:51.623Z,22.37
2022-08-01T06:08:20.088Z,22.41
2022-08-01T06:10:49.932Z,22.49
2022-08-01T06:13:20.057Z,22.55
2022-08-01T06:15:48.970Z,22.64
2022-08-01T06:18:18.018Z,22.70
2022-08-01T06:20:46.479Z,22.71
2022-08-01T06:23:32.318Z,22.78
2022-08-01T06:26:03.150Z,22.82
2022-08-01T06:28:31.812Z,22.87
2022-08-01T06:31:00.942Z,22.92
2022-08-01T06:33:29.852Z,22.94
2022-08-01T06:35:58.316Z,22.97
2022-08-01T06:38:26.773Z,22.99
2022-08-01T06:40:55.280Z,23.04
2022-08-01T06:43:25.188Z,23.09
2022-08-01T06:45:53.703Z,23.10
2022-08-01T06:48:22.180Z,23.19
2022-08-01T06:51:08.945Z,23.27
2022-08-01T06:53:38.816Z,23.30
2022-08-01T06:56:09.768Z,23.35
2022-08-01T06:58:39.921Z,23.40
2022-08-01T07:01:08.640Z,23.47
2022-08-01T07:03:53.537Z,23.55
2022-08-01T07:06:23.030Z,23.58
2022-08-01T07:08:51.514Z,23.69
2022-08-01T07:11:20.530Z,23.75
2022-08-01T07:13:50.645Z,23.85
2022-08-01T07:16:19.593Z,23.90
2022-08-01T07:18:47.999Z,23.94
2022-08-01T07:21:38.862Z,24.01
2022-08-01T07:24:09.243Z,24.09
2022-08-01T07:26:52.462Z,24.10
2022-08-01T07:29:26.059Z,24.18
2022-08-01T07:31:55.384Z,24.27
2022-08-01T07:34:24.326Z,24.31
2022-08-01T07:36:53.519Z,24.38
2022-08-01T07:39:22.311Z,24.44
2022-08-01T07:42:06.425Z,24.49
2022-08-01T07:44:38.994Z,24.56
2022-08-01T07:47:08.811Z,24.60
2022-08-01T07:49:40.297Z,24.66
2022-08-01T07:52:10.101Z,24.74
2022-08-01T07:54:39.025Z,24.79
2022-08-01T07:57:08.263Z,24.88
2022-08-01T07:59:38.168Z,24.96
2022-08-01T08:02:07.422Z,25.00
2022-08-01T08:04:36.298Z,25.07
2022-08-01T08:07:05.196Z,25.17
2022-08-01T08:09:37.248Z,25.22
2022-08-01T08:12:08.460Z,25.20
2022-08-01T08:14:39.062Z,25.18
2022-08-01T08:17:08.136Z,25.22
2022-08-01T08:19:39.270Z,25.26
2022-08-01T08:22:09.812Z,25.27
2022-08-01T08:24:46.141Z,25.34
2022-08-01T08:27:15.628Z,25.43
2022-08-01T08:29:45.581Z,25.45
2022-08-01T08:32:14.497Z,25.54
2022-08-01T08:34:43.411Z,25.58
2022-08-01T08:37:12.242Z,25.67
2022-08-01T08:39:41.369Z,25.74
2022-08-01T08:42:11.806Z,25.85
2022-08-01T08:44:43.401Z,25.92
2022-08-01T08:47:19.883Z,25.97
2022-08-01T08:49:50.677Z,26.03
2022-08-01T08:52:21.884Z,26.09
2022-08-01T08:54:52.057Z,26.11
2022-08-01T08:57:22.586Z,26.14
2022-08-01T08:59:53.196Z,26.16
2022-08-01T09:02:23.337Z,26.24
2022-08-01T09:04:53.143Z,26.30
2022-08-01T09:07:21.719Z,26.41
2022-08-01T09:09:51.587Z,26.49
2022-08-01T09:12:21.520Z,26.64
2022-08-01T09:14:51.395Z,26.81
2022-08-01T09:17:20.106Z,27.02
2022-08-01T09:19:54.460Z,27.32
2022-08-01T09:22:25.925Z,27.59
2022-08-01T09:25:03.135Z,27.84
2022-08-01T09:27:32.511Z,27.93
2022-08-01T09:30:11.866Z,28.43
2022-08-01T09:32:55.730Z,29.04
2022-08-01T09:35:31.994Z,29.49
2022-08-01T09:38:16.741Z,29.95
2022-08-01T09:40:58.949Z,30.19
2022-08-01T09:43:29.091Z,30.27
2022-08-01T09:45:58.412Z,30.34
2022-08-01T09:48:29.907Z,30.77
2022-08-01T09:51:07.402Z,30.60
2022-08-01T09:53:52.178Z,30.34
2022-08-01T09:56:23.755Z,30.18
2022-08-01T09:58:59.419Z,29.95
2022-08-01T10:01:36.535Z,30.12
2022-08-01T10:04:10.784Z,29.96
2022-08-01T10:06:43.820Z,29.95
2022-08-01T10:09:14.818Z,30.01
2022-08-01T10:11:45.301Z,29.88
2022-08-01T10:14:18.119Z,29.64
2022-08-01T10:16:53.531Z,29.64
2022-08-01T10:19:25.138Z,29.73
2022-08-01T10:22:00.435Z,29.74
2022-08-01T10:24:33.429Z,29.62
2022-08-01T10:27:08.396Z,29.41
2022-08-01T10:29:59.170Z,29.47
2022-08-01T10:32:33.975Z,29.42
2022-08-01T10:35:06.233Z,29.34
2022-08-01T10:37:51.956Z,29.17
2022-08-01T10:40:30.798Z,29.09
2022-08-01T10:43:00.996Z,29.13
2022-08-01T10:45:30.575Z,29.06
2022-08-01T10:48:06.793Z,28.93
2022-08-01T10:50:40.594Z,28.78
2022-08-01T10:53:23.276Z,28.70
2022-08-01T10:56:03.205Z,28.71
2022-08-01T10:58:42.752Z,28.72
2022-08-01T11:01:19.665Z,28.69
2022-08-01T11:04:01.247Z,28.67
2022-08-01T11:06:41.899Z,28.63
2022-08-01T11:09:36.340Z,28.44
2022-08-01T11:12:13.124Z,28.35
2022-08-01T11:15:29.576Z,28.21
2022-08-01T11:18:02.563Z,28.19
2022-08-01T11:20:34.013Z,28.19
2022-08-01T11:23:36.338Z,28.21
2022-08-01T11:26:15.023Z,28.25
2022-08-01T11:29:10.822Z,28.27
2022-08-01T11:31:37.843Z,28.23
2022-08-01T11:34:07.401Z,28.28
2022-08-01T11:36:58.136Z,28.27
2022-08-01T11:39:24.543Z,28.09
2022-08-01T11:41:55.774Z,28.06
2022-08-01T11:44:30.125Z,27.93
2022-08-01T11:47:09.317Z,27.93
2022-08-01T11:50:00.735Z,28.02
2022-08-01T11:52:31.010Z,28.08
2022-08-01T11:55:10.059Z,28.15
2022-08-01T11:57:41.145Z,28.19
2022-08-01T12:00:15.403Z,28.29
2022-08-01T12:02:46.422Z,28.38
2022-08-01T12:05:17.746Z,28.39
2022-08-01T12:07:47.653Z,28.33
2022-08-01T12:10:17.877Z,28.34
2022-08-01T12:12:49.587Z,28.34
2022-08-01T12:15:19.272Z,28.24
2022-08-01T12:17:58.933Z,28.16
2022-08-01T12:20:32.023Z,28.04
2022-08-01T12:23:02.272Z,27.99
2022-08-01T12:25:31.315Z,27.89
2022-08-01T12:28:03.940Z,27.77
2022-08-01T12:30:36.588Z,27.68
2022-08-01T12:33:07.380Z,27.62
2022-08-01T12:35:37.621Z,27.61
2022-08-01T12:38:10.467Z,27.54
2022-08-01T12:40:45.619Z,27.52
2022-08-01T12:43:27.960Z,27.48
2022-08-01T12:46:00.556Z,27.42
2022-08-01T12:48:30.199Z,27.40
2022-08-01T12:51:02.299Z,27.41
2022-08-01T12:53:40.358Z,27.38
2022-08-01T12:56:12.183Z,27.25
2022-08-01T12:58:42.375Z,27.38
2022-08-01T13:01:13.193Z,27.38
2022-08-01T13:03:42.427Z,27.41
2022-08-01T13:06:16.586Z,27.49
2022-08-01T13:08:47.163Z,27.52
2022-08-01T13:11:18.201Z,27.57
2022-08-01T13:13:49.924Z,27.58
2022-08-01T13:16:30.531Z,27.66
2022-08-01T13:19:07.967Z,27.73
2022-08-01T13:21:54.394Z,27.80
2022-08-01T13:24:28.198Z,27.74
2022-08-01T13:27:00.660Z,27.63
2022-08-01T13:29:35.130Z,27.62
2022-08-01T13:32:29.174Z,27.73
2022-08-01T13:35:04.423Z,27.69
2022-08-01T13:37:33.111Z,27.70
2022-08-01T13:40:01.707Z,27.61
2022-08-01T13:42:33.005Z,27.58
2022-08-01T13:45:03.780Z,27.43
2022-08-01T13:47:32.930Z,27.39
2022-08-01T13:50:04.088Z,27.34
2022-08-01T13:52:33.225Z,27.40
2022-08-01T13:55:02.292Z,27.30
2022-08-01T13:57:37.281Z,27.10
2022-08-01T14:00:10.888Z,27.16
2022-08-01T14:02:42.341Z,27.08
2022-08-01T14:05:11.147Z,27.03
2022-08-01T14:07:39.629Z,26.89
2022-08-01T14:10:19.435Z,26.89
2022-08-01T14:12:49.738Z,26.84
2022-08-01T14:15:39.272Z,26.83
2022-08-01T14:18:10.543Z,26.77
2022-08-01T14:20:40.699Z,26.71
2022-08-01T14:23:09.502Z,26.72
2022-08-01T14:26:03.261Z,26.63
2022-08-01T14:28:29.286Z,26.63
2022-08-01T14:31:00.316Z,26.64
2022-08-01T14:33:28.964Z,26.61
2022-08-01T14:36:05.267Z,26.64
2022-08-01T14:38:46.869Z,26.59
2022-08-01T14:41:15.708Z,26.54
2022-08-01T14:43:44.198Z,26.57
2022-08-01T14:46:14.523Z,26.54
2022-08-01T14:48:43.373Z,26.57
2022-08-01T14:51:11.959Z,26.59
2022-08-01T14:53:47.132Z,26.46
2022-08-01T14:56:19.749Z,26.47
2022-08-01T14:58:48.613Z,26.44
2022-08-01T15:01:19.215Z,26.42
2022-08-01T15:03:49.117Z,26.46
2022-08-01T15:06:17.583Z,26.50
2022-08-01T15:08:46.376Z,26.47
2022-08-01T15:11:14.902Z,26.42
2022-08-01T15:13:43.461Z,26.43
2022-08-01T15:16:12.384Z,26.45
2022-08-01T15:18:43.103Z,26.36
2022-08-01T15:21:17.172Z,26.35
2022-08-01T15:23:45.698Z,26.25
2022-08-01T15:26:14.853Z,26.24
2022-08-01T15:28:43.428Z,26.19
2022-08-01T15:31:14.235Z,26.23
2022-08-01T15:33:44.315Z,26.25
2022-08-01T15:36:15.438Z,26.23
2022-08-01T15:38:44.003Z,26.19
2022-08-01T15:41:12.517Z,26.17
2022-08-01T15:43:44.128Z,26.13
2022-08-01T15:46:13.354Z,26.13
2022-08-01T15:48:43.624Z,26.14
2022-08-01T15:51:12.311Z,26.12
2022-08-01T15:53:41.525Z,26.15
2022-08-01T15:56:10.157Z,26.11
2022-08-01T15:58:38.615Z,26.09
2022-08-01T16:01:07.075Z,26.05
2022-08-01T16:03:35.580Z,26.05
2022-08-01T16:06:05.699Z,26.05
2022-08-01T16:08:34.263Z,26.03
2022-08-01T16:11:03.312Z,25.99
2022-08-01T16:13:31.776Z,25.95
2022-08-01T16:16:00.300Z,25.94
2022-08-01T16:18:28.788Z,25.93
2022-08-01T16:20:58.878Z,25.86
2022-08-01T16:23:29.066Z,25.86
2022-08-01T16:25:57.564Z,25.79
2022-08-01T16:28:27.738Z,25.81
2022-08-01T16:31:16.693Z,25.79
2022-08-01T16:33:54.158Z,25.73
2022-08-01T16:36:25.247Z,25.72
2022-08-01T16:38:55.116Z,25.71
2022-08-01T16:41:23.688Z,25.67
2022-08-01T16:43:53.507Z,25.69
2022-08-01T16:46:25.115Z,25.63
2022-08-01T16:48:54.263Z,25.64
2022-08-01T16:51:22.895Z,25.68
2022-08-01T16:53:51.443Z,25.66
2022-08-01T16:56:21.602Z,25.61
2022-08-01T16:58:50.160Z,25.61
2022-08-01T17:01:58.685Z,25.55
2022-08-01T17:04:08.141Z,25.50
2022-08-01T17:06:36.631Z,25.52
2022-08-01T17:09:06.018Z,25.51
2022-08-01T17:11:36.273Z,25.52
2022-08-01T17:14:05.772Z,25.49
2022-08-01T17:16:34.302Z,25.47
2022-08-01T17:19:03.880Z,25.41
2022-08-01T17:21:32.376Z,25.39
2022-08-01T17:24:01.044Z,25.38
2022-08-01T17:26:29.489Z,25.34
2022-08-01T17:28:59.665Z,25.30
2022-08-01T17:31:28.122Z,25.26
2022-08-01T17:33:56.601Z,25.25
2022-08-01T17:36:25.228Z,25.21
2022-08-01T17:38:53.663Z,25.19
2022-08-01T17:41:22.192Z,25.20
2022-08-01T17:43:50.706Z,25.16
2022-08-01T17:46:20.543Z,25.14
2022-08-01T17:48:48.992Z,25.15
2022-08-01T17:51:22.491Z,25.15
2022-08-01T17:53:56.945Z,25.12
2022-08-01T17:56:26.876Z,25.10
2022-08-01T17:58:55.747Z,25.01
2022-08-01T18:01:26.502Z,24.99
2022-08-01T18:03:57.691Z,24.97
2022-08-01T18:06:27.377Z,24.89
2022-08-01T18:08:59.580Z,24.84
2022-08-01T18:11:37.180Z,24.82
2022-08-01T18:14:07.046Z,24.77
2022-08-01T18:16:36.964Z,24.69
2022-08-01T18:19:07.050Z,24.64
2022-08-01T18:21:38.645Z,24.58
2022-08-01T18:24:11.035Z,24.58
2022-08-01T18:26:39.545Z,24.58
2022-08-01T18:29:08.121Z,24.55
2022-08-01T18:31:37.967Z,24.54
2022-08-01T18:34:06.646Z,24.53
2022-08-01T18:36:35.235Z,24.55
2022-08-01T18:39:10.907Z,24.55
2022-08-01T18:41:40.245Z,24.59
2022-08-01T18:44:09.596Z,24.57
2022-08-01T18:46:40.713Z,24.48
2022-08-01T18:49:11.800Z,24.52
2022-08-01T18:51:44.559Z,24.48
2022-08-01T18:54:13.982Z,24.47
2022-08-01T18:56:43.366Z,24.46
2022-08-01T18:59:12.301Z,24.42
2022-08-01T19:01:42.622Z,24.38
2022-08-01T19:04:13.353Z,24.33
2022-08-01T19:06:42.140Z,24.27
2022-08-01T19:09:10.807Z,24.23
2022-08-01T19:11:39.564Z,24.20
2022-08-01T19:14:08.287Z,24.17
2022-08-01T19:16:36.862Z,24.12
2022-08-01T19:19:09.745Z,24.10
2022-08-01T19:21:44.657Z,24.06
2022-08-01T19:24:23.377Z,24.05
2022-08-01T19:26:54.642Z,24.04
2022-08-01T19:29:35.260Z,24.03
2022-08-01T19:32:07.186Z,23.97
2022-08-01T19:34:44.202Z,23.97
2022-08-01T19:37:13.461Z,23.98
2022-08-01T19:39:45.841Z,23.93
2022-08-01T19:42:14.793Z,23.88
2022-08-01T19:44:45.548Z,23.84
2022-08-01T19:47:15.270Z,23.83
2022-08-01T19:49:45.425Z,23.74
2022-08-01T19:52:16.357Z,23.74
2022-08-01T19:54:46.309Z,23.75
2022-08-01T19:57:16.856Z,23.68
2022-08-01T19:59:47.682Z,23.65
2022-08-01T20:02:19.331Z,23.62
2022-08-01T20:04:49.936Z,23.59
2022-08-01T20:07:18.835Z,23.55
2022-08-01T20:09:54.275Z,23.52
2022-08-01T20:12:23.882Z,23.47
2022-08-01T20:14:53.887Z,23.48
2022-08-01T20:17:23.112Z,23.46
2022-08-01T20:19:53.404Z,23.50
2022-08-01T20:22:29.439Z,23.43
2022-08-01T20:25:00.411Z,23.42
2022-08-01T20:27:32.041Z,23.41
2022-08-01T20:30:01.699Z,23.41
2022-08-01T20:32:34.211Z,23.40
2022-08-01T20:35:06.590Z,23.37
2022-08-01T20:38:05.871Z,23.34
2022-08-01T20:40:28.559Z,23.33
2022-08-01T20:42:58.108Z,23.31
2022-08-01T20:45:27.992Z,23.26
2022-08-01T20:47:59.539Z,23.22
2022-08-01T20:50:54.090Z,23.17
2022-08-01T20:53:24.022Z,23.14
2022-08-01T20:56:00.858Z,23.10
2022-08-01T20:58:38.354Z,23.09
2022-08-01T21:01:09.611Z,23.08
2022-08-01T21:03:43.556Z,23.08
2022-08-01T21:06:15.317Z,23.01
2022-08-01T21:08:45.829Z,23.00
2022-08-01T21:11:20.931Z,22.95
2022-08-01T21:13:50.515Z,22.91
2022-08-01T21:16:27.607Z,22.91
2022-08-01T21:21:56.031Z,22.85
2022-08-01T21:24:28.983Z,22.84
2022-08-01T21:26:58.881Z,22.83
2022-08-01T21:29:27.876Z,22.85
2022-08-01T21:32:10.423Z,22.81
2022-08-01T21:34:40.507Z,22.71
2022-08-01T21:37:11.209Z,22.73
2022-08-01T21:39:41.520Z,22.76
2022-08-01T21:42:11.292Z,22.70
2022-08-01T21:44:46.068Z,22.71
2022-08-01T21:47:16.842Z,22.70
2022-08-01T21:49:45.384Z,22.65
2022-08-01T21:52:21.534Z,22.66
2022-08-01T21:55:01.971Z,22.68
2022-08-01T21:57:43.821Z,22.65
2022-08-01T22:00:25.711Z,22.63
2022-08-01T22:03:02.146Z,22.62
2022-08-01T22:05:49.916Z,22.64
2022-08-01T22:08:28.929Z,22.61
2022-08-01T22:11:00.665Z,22.59
2022-08-01T22:13:29.361Z,22.57
2022-08-01T22:15:58.995Z,22.55
2022-08-01T22:18:28.880Z,22.52
2022-08-01T22:20:57.735Z,22.44
2022-08-01T22:23:28.039Z,22.43
2022-08-01T22:25:57.368Z,22.43
2022-08-01T22:28:25.840Z,22.45
2022-08-01T22:30:54.688Z,22.42
2022-08-01T22:33:23.105Z,22.44
2022-08-01T22:35:53.764Z,22.46
2022-08-01T22:38:23.838Z,22.49
2022-08-01T22:40:55.465Z,22.44
2022-08-01T22:43:31.395Z,22.44
2022-08-01T22:46:17.200Z,22.44
2022-08-01T22:48:50.924Z,22.40
2022-08-01T22:51:43.206Z,22.36
2022-08-01T22:54:15.062Z,22.32
2022-08-01T22:56:55.923Z,22.33
2022-08-01T22:59:42.669Z,22.35
2022-08-01T23:02:17.411Z,22.35
2022-08-01T23:04:48.164Z,22.37
2022-08-01T23:07:21.168Z,22.34
2022-08-01T23:09:53.822Z,22.25
2022-08-01T23:12:29.000Z,22.19
2022-08-01T23:15:00.190Z,22.07
2022-08-01T23:17:31.309Z,22.02
2022-08-01T23:20:01.626Z,22.04
2022-08-01T23:22:34.029Z,21.99
2022-08-01T23:25:07.057Z,21.92
2022-08-01T23:27:55.877Z,21.93
2022-08-01T23:30:31.220Z,21.88
2022-08-01T23:33:00.774Z,21.85
2022-08-01T23:35:30.165Z,21.81
2022-08-01T23:38:02.702Z,21.80
2022-08-01T23:40:32.988Z,21.78
2022-08-01T23:43:04.278Z,21.72
2022-08-01T23:46:02.901Z,21.68
2022-08-01T23:48:22.129Z,21.63
2022-08-01T23:50:52.434Z,21.57
2022-08-01T23:53:20.873Z,21.52
2022-08-01T23:55:49.288Z,21.49
2022-08-01T23:58:19.784Z,21.45
